sensor_id;sensor_type;location;lat;lon;timestamp;temperature;humidity
67358;HTU21D;54240;51.096;5.878;2023-02-11T00:00:39;7.05;-6.00
67358;HTU21D;54240;51.096;5.878;2023-02-11T00:03:05;7.08;-6.00
67358;HTU21D;54240;51.096;5.878;2023-02-11T00:05:31;6.88;-6.00
67358;HTU21D;54240;51.096;5.878;2023-02-11T00:07:57;6.89;-6.00
67358;HTU21D;54240;51.096;5.878;2023-02-11T00:10:23;6.83;-6.00
67358;HTU21D;54240;51.096;5.878;2023-02-11T00:12:48;6.79;-6.00
67358;HTU21D;54240;51.096;5.878;2023-02-11T00:15:14;6.73;-6.00
67358;HTU21D;54240;51.096;5.878;2023-02-11T00:17:40;6.58;-6.00
67358;HTU21D;54240;51.096;5.878;2023-02-11T00:20:06;6.66;-6.00
67358;HTU21D;54240;51.096;5.878;2023-02-11T00:22:32;6.66;-6.00
67358;HTU21D;54240;51.096;5.878;2023-02-11T00:24:58;6.68;-6.00
67358;HTU21D;54240;51.096;5.878;2023-02-11T00:27:24;6.50;-6.00
67358;HTU21D;54240;51.096;5.878;2023-02-11T00:29:50;6.44;-6.00
67358;HTU21D;54240;51.096;5.878;2023-02-11T00:32:16;6.54;-6.00
67358;HTU21D;54240;51.096;5.878;2023-02-11T00:34:42;6.53;-6.00
67358;HTU21D;54240;51.096;5.878;2023-02-11T00:37:08;6.53;-6.00
67358;HTU21D;54240;51.096;5.878;2023-02-11T00:39:33;6.51;-6.00
67358;HTU21D;54240;51.096;5.878;2023-02-11T00:42:02;6.44;-6.00
67358;HTU21D;54240;51.096;5.878;2023-02-11T00:44:28;6.51;-6.00
67358;HTU21D;54240;51.096;5.878;2023-02-11T00:46:53;6.49;-6.00
67358;HTU21D;54240;51.096;5.878;2023-02-11T00:49:19;6.53;-6.00
67358;HTU21D;54240;51.096;5.878;2023-02-11T00:51:47;6.42;-6.00
67358;HTU21D;54240;51.096;5.878;2023-02-11T00:54:13;6.45;-6.00
67358;HTU21D;54240;51.096;5.878;2023-02-11T00:56:39;6.49;-6.00
67358;HTU21D;54240;51.096;5.878;2023-02-11T00:59:05;6.38;-6.00
67358;HTU21D;54240;51.096;5.878;2023-02-11T01:01:30;6.52;-6.00
67358;HTU21D;54240;51.096;5.878;2023-02-11T01:03:56;6.51;-6.00
67358;HTU21D;54240;51.096;5.878;2023-02-11T01:06:22;6.43;-6.00
67358;HTU21D;54240;51.096;5.878;2023-02-11T01:08:48;6.48;-6.00
67358;HTU21D;54240;51.096;5.878;2023-02-11T01:11:17;6.43;-6.00
67358;HTU21D;54240;51.096;5.878;2023-02-11T01:13:45;6.44;-6.00
67358;HTU21D;54240;51.096;5.878;2023-02-11T01:16:12;6.44;-6.00
67358;HTU21D;54240;51.096;5.878;2023-02-11T01:18:38;6.38;-6.00
67358;HTU21D;54240;51.096;5.878;2023-02-11T01:21:06;6.46;-6.00
67358;HTU21D;54240;51.096;5.878;2023-02-11T01:23:32;6.43;-6.00
67358;HTU21D;54240;51.096;5.878;2023-02-11T01:25:58;6.38;-6.00
67358;HTU21D;54240;51.096;5.878;2023-02-11T01:28:27;6.39;-6.00
67358;HTU21D;54240;51.096;5.878;2023-02-11T01:30:54;6.42;-6.00
67358;HTU21D;54240;51.096;5.878;2023-02-11T01:33:21;6.39;-6.00
67358;HTU21D;54240;51.096;5.878;2023-02-11T01:35:47;6.43;-6.00
67358;HTU21D;54240;51.096;5.878;2023-02-11T01:38:19;6.36;-6.00
67358;HTU21D;54240;51.096;5.878;2023-02-11T01:40:47;6.26;-6.00
67358;HTU21D;54240;51.096;5.878;2023-02-11T01:43:13;6.28;-6.00
67358;HTU21D;54240;51.096;5.878;2023-02-11T01:48:41;6.19;-6.00
67358;HTU21D;54240;51.096;5.878;2023-02-11T01:51:29;6.12;-6.00
67358;HTU21D;54240;51.096;5.878;2023-02-11T01:53:59;6.12;-6.00
67358;HTU21D;54240;51.096;5.878;2023-02-11T01:56:50;6.09;-6.00
67358;HTU21D;54240;51.096;5.878;2023-02-11T01:59:43;6.08;-6.00
67358;HTU21D;54240;51.096;5.878;2023-02-11T02:02:14;6.02;-6.00
67358;HTU21D;54240;51.096;5.878;2023-02-11T02:10:34;6.06;-6.00
67358;HTU21D;54240;51.096;5.878;2023-02-11T02:13:01;6.19;-6.00
67358;HTU21D;54240;51.096;5.878;2023-02-11T02:15:37;6.19;-6.00
67358;HTU21D;54240;51.096;5.878;2023-02-11T02:21:19;6.39;-6.00
67358;HTU21D;54240;51.096;5.878;2023-02-11T02:43:26;6.50;-6.00
67358;HTU21D;54240;51.096;5.878;2023-02-11T02:45:52;6.40;-6.00
67358;HTU21D;54240;51.096;5.878;2023-02-11T02:48:30;6.45;-6.00
67358;HTU21D;54240;51.096;5.878;2023-02-11T02:53:33;6.46;-6.00
67358;HTU21D;54240;51.096;5.878;2023-02-11T02:56:19;6.53;-6.00
67358;HTU21D;54240;51.096;5.878;2023-02-11T02:59:28;6.38;-6.00
67358;HTU21D;54240;51.096;5.878;2023-02-11T03:02:10;6.41;-6.00
67358;HTU21D;54240;51.096;5.878;2023-02-11T03:05:35;6.57;-6.00
67358;HTU21D;54240;51.096;5.878;2023-02-11T03:07:58;6.44;-6.00
67358;HTU21D;54240;51.096;5.878;2023-02-11T03:10:31;6.44;-6.00
67358;HTU21D;54240;51.096;5.878;2023-02-11T03:12:58;6.51;-6.00
67358;HTU21D;54240;51.096;5.878;2023-02-11T03:15:29;6.50;-6.00
67358;HTU21D;54240;51.096;5.878;2023-02-11T03:17:59;6.55;-6.00
67358;HTU21D;54240;51.096;5.878;2023-02-11T03:20:29;6.51;-6.00
67358;HTU21D;54240;51.096;5.878;2023-02-11T03:23:10;6.60;-6.00
67358;HTU21D;54240;51.096;5.878;2023-02-11T03:25:44;6.53;-6.00
67358;HTU21D;54240;51.096;5.878;2023-02-11T03:31:29;6.67;-6.00
67358;HTU21D;54240;51.096;5.878;2023-02-11T03:34:35;6.51;-6.00
67358;HTU21D;54240;51.096;5.878;2023-02-11T03:37:10;6.55;-6.00
67358;HTU21D;54240;51.096;5.878;2023-02-11T03:39:51;6.52;-6.00
67358;HTU21D;54240;51.096;5.878;2023-02-11T03:42:22;6.74;-6.00
67358;HTU21D;54240;51.096;5.878;2023-02-11T03:45:02;6.72;-6.00
67358;HTU21D;54240;51.096;5.878;2023-02-11T03:47:33;6.76;-6.00
67358;HTU21D;54240;51.096;5.878;2023-02-11T03:50:03;6.67;-6.00
67358;HTU21D;54240;51.096;5.878;2023-02-11T03:52:31;6.71;-6.00
67358;HTU21D;54240;51.096;5.878;2023-02-11T03:55:00;6.73;-6.00
67358;HTU21D;54240;51.096;5.878;2023-02-11T03:57:28;6.69;-6.00
67358;HTU21D;54240;51.096;5.878;2023-02-11T03:59:56;6.75;-6.00
67358;HTU21D;54240;51.096;5.878;2023-02-11T04:02:27;6.65;-6.00
67358;HTU21D;54240;51.096;5.878;2023-02-11T04:04:54;6.76;-6.00
67358;HTU21D;54240;51.096;5.878;2023-02-11T04:07:20;6.74;-6.00
67358;HTU21D;54240;51.096;5.878;2023-02-11T04:09:45;6.58;-6.00
67358;HTU21D;54240;51.096;5.878;2023-02-11T04:12:11;6.69;-6.00
67358;HTU21D;54240;51.096;5.878;2023-02-11T04:14:37;6.61;-6.00
67358;HTU21D;54240;51.096;5.878;2023-02-11T04:17:04;6.71;-6.00
67358;HTU21D;54240;51.096;5.878;2023-02-11T04:19:30;6.69;-6.00
67358;HTU21D;54240;51.096;5.878;2023-02-11T04:21:56;6.64;-6.00
67358;HTU21D;54240;51.096;5.878;2023-02-11T04:24:22;6.75;-6.00
67358;HTU21D;54240;51.096;5.878;2023-02-11T04:26:48;6.69;-6.00
67358;HTU21D;54240;51.096;5.878;2023-02-11T04:29:13;6.60;0.21
67358;HTU21D;54240;51.096;5.878;2023-02-11T04:31:39;6.73;-6.00
67358;HTU21D;54240;51.096;5.878;2023-02-11T04:34:05;6.66;-6.00
67358;HTU21D;54240;51.096;5.878;2023-02-11T04:36:31;6.82;-6.00
67358;HTU21D;54240;51.096;5.878;2023-02-11T04:38:56;6.66;-6.00
67358;HTU21D;54240;51.096;5.878;2023-02-11T04:41:22;6.69;-6.00
67358;HTU21D;54240;51.096;5.878;2023-02-11T04:43:48;6.71;-6.00
67358;HTU21D;54240;51.096;5.878;2023-02-11T04:46:14;6.86;-6.00
67358;HTU21D;54240;51.096;5.878;2023-02-11T04:48:39;6.73;-6.00
67358;HTU21D;54240;51.096;5.878;2023-02-11T04:51:05;6.75;-6.00
67358;HTU21D;54240;51.096;5.878;2023-02-11T04:53:31;6.75;-6.00
67358;HTU21D;54240;51.096;5.878;2023-02-11T04:55:57;6.79;-6.00
67358;HTU21D;54240;51.096;5.878;2023-02-11T04:58:23;6.71;11.50
67358;HTU21D;54240;51.096;5.878;2023-02-11T05:00:49;6.82;-6.00
67358;HTU21D;54240;51.096;5.878;2023-02-11T05:03:15;6.79;-6.00
67358;HTU21D;54240;51.096;5.878;2023-02-11T05:05:41;6.80;-6.00
67358;HTU21D;54240;51.096;5.878;2023-02-11T05:08:09;6.84;-6.00
67358;HTU21D;54240;51.096;5.878;2023-02-11T05:10:35;6.81;0.53
67358;HTU21D;54240;51.096;5.878;2023-02-11T05:13:01;6.71;38.04
67358;HTU21D;54240;51.096;5.878;2023-02-11T05:15:27;6.74;22.98
67358;HTU21D;54240;51.096;5.878;2023-02-11T05:17:53;6.71;45.90
67358;HTU21D;54240;51.096;5.878;2023-02-11T05:20:19;6.53;106.99
67358;HTU21D;54240;51.096;5.878;2023-02-11T05:22:45;6.55;108.02
67358;HTU21D;54240;51.096;5.878;2023-02-11T05:25:11;6.63;84.86
67358;HTU21D;54240;51.096;5.878;2023-02-11T05:27:37;6.67;68.01
67358;HTU21D;54240;51.096;5.878;2023-02-11T05:30:04;6.58;108.89
67358;HTU21D;54240;51.096;5.878;2023-02-11T05:32:30;6.73;70.97
67358;HTU21D;54240;51.096;5.878;2023-02-11T05:34:56;6.81;48.05
67358;HTU21D;54240;51.096;5.878;2023-02-11T05:37:22;6.79;53.07
67358;HTU21D;54240;51.096;5.878;2023-02-11T05:39:48;6.84;40.52
67358;HTU21D;54240;51.096;5.878;2023-02-11T05:42:14;6.90;37.91
67358;HTU21D;54240;51.096;5.878;2023-02-11T05:44:39;6.93;26.10
67358;HTU21D;54240;51.096;5.878;2023-02-11T05:47:06;6.90;35.94
67358;HTU21D;54240;51.096;5.878;2023-02-11T05:49:34;6.94;28.54
67358;HTU21D;54240;51.096;5.878;2023-02-11T05:52:00;6.79;70.29
67358;HTU21D;54240;51.096;5.878;2023-02-11T05:54:26;6.94;40.35
67358;HTU21D;54240;51.096;5.878;2023-02-11T05:56:52;6.82;56.68
67358;HTU21D;54240;51.096;5.878;2023-02-11T05:59:18;6.90;49.32
67358;HTU21D;54240;51.096;5.878;2023-02-11T06:01:44;6.97;40.59
67358;HTU21D;54240;51.096;5.878;2023-02-11T06:04:10;6.70;118.99
67358;HTU21D;54240;51.096;5.878;2023-02-11T06:06:35;6.84;88.44
67358;HTU21D;54240;51.096;5.878;2023-02-11T06:09:02;6.81;93.22
67358;HTU21D;54240;51.096;5.878;2023-02-11T06:11:28;6.90;73.85
67358;HTU21D;54240;51.096;5.878;2023-02-11T06:13:53;7.02;46.47
67358;HTU21D;54240;51.096;5.878;2023-02-11T06:16:19;6.95;55.51
67358;HTU21D;54240;51.096;5.878;2023-02-11T06:18:45;7.05;30.54
67358;HTU21D;54240;51.096;5.878;2023-02-11T06:21:11;6.98;44.10
67358;HTU21D;54240;51.096;5.878;2023-02-11T06:23:37;6.91;67.33
67358;HTU21D;54240;51.096;5.878;2023-02-11T06:26:06;6.79;111.05
67358;HTU21D;54240;51.096;5.878;2023-02-11T06:28:33;6.85;96.01
67358;HTU21D;54240;51.096;5.878;2023-02-11T06:31:05;6.89;96.59
67358;HTU21D;54240;51.096;5.878;2023-02-11T06:33:31;6.88;93.53
67358;HTU21D;54240;51.096;5.878;2023-02-11T06:35:57;6.80;118.99
67358;HTU21D;54240;51.096;5.878;2023-02-11T06:38:23;6.79;118.99
67358;HTU21D;54240;51.096;5.878;2023-02-11T06:40:49;6.84;118.99
67358;HTU21D;54240;51.096;5.878;2023-02-11T06:43:15;6.79;118.99
67358;HTU21D;54240;51.096;5.878;2023-02-11T06:45:41;6.68;118.99
67358;HTU21D;54240;51.096;5.878;2023-02-11T06:48:07;6.79;118.99
67358;HTU21D;54240;51.096;5.878;2023-02-11T06:50:33;6.80;118.99
67358;HTU21D;54240;51.096;5.878;2023-02-11T06:52:59;6.69;118.99
67358;HTU21D;54240;51.096;5.878;2023-02-11T06:55:25;6.83;118.99
67358;HTU21D;54240;51.096;5.878;2023-02-11T06:57:50;6.72;118.99
67358;HTU21D;54240;51.096;5.878;2023-02-11T07:00:17;6.94;118.99
67358;HTU21D;54240;51.096;5.878;2023-02-11T07:02:43;6.87;118.99
67358;HTU21D;54240;51.096;5.878;2023-02-11T07:05:09;6.78;118.99
67358;HTU21D;54240;51.096;5.878;2023-02-11T07:07:35;6.86;118.99
67358;HTU21D;54240;51.096;5.878;2023-02-11T07:10:02;6.94;118.99
67358;HTU21D;54240;51.096;5.878;2023-02-11T07:12:29;6.94;118.99
67358;HTU21D;54240;51.096;5.878;2023-02-11T07:14:56;6.96;118.99
67358;HTU21D;54240;51.096;5.878;2023-02-11T07:17:22;7.01;118.99
67358;HTU21D;54240;51.096;5.878;2023-02-11T07:19:47;6.98;118.99
67358;HTU21D;54240;51.096;5.878;2023-02-11T07:22:14;6.96;118.99
67358;HTU21D;54240;51.096;5.878;2023-02-11T07:24:40;7.18;118.99
67358;HTU21D;54240;51.096;5.878;2023-02-11T07:27:06;7.24;118.99
67358;HTU21D;54240;51.096;5.878;2023-02-11T07:29:32;7.24;118.99
67358;HTU21D;54240;51.096;5.878;2023-02-11T07:31:58;7.14;118.99
67358;HTU21D;54240;51.096;5.878;2023-02-11T07:34:24;7.00;118.99
67358;HTU21D;54240;51.096;5.878;2023-02-11T07:36:50;7.07;118.99
67358;HTU21D;54240;51.096;5.878;2023-02-11T07:39:16;6.97;118.99
67358;HTU21D;54240;51.096;5.878;2023-02-11T07:41:42;7.13;118.99
67358;HTU21D;54240;51.096;5.878;2023-02-11T07:44:09;7.19;118.99
67358;HTU21D;54240;51.096;5.878;2023-02-11T07:46:35;7.20;118.99
67358;HTU21D;54240;51.096;5.878;2023-02-11T07:49:01;7.27;118.99
67358;HTU21D;54240;51.096;5.878;2023-02-11T07:51:28;7.35;118.99
67358;HTU21D;54240;51.096;5.878;2023-02-11T07:53:57;7.24;118.99
67358;HTU21D;54240;51.096;5.878;2023-02-11T07:56:23;7.27;118.99
67358;HTU21D;54240;51.096;5.878;2023-02-11T07:58:49;7.32;118.99
67358;HTU21D;54240;51.096;5.878;2023-02-11T08:01:18;7.44;118.99
67358;HTU21D;54240;51.096;5.878;2023-02-11T08:03:46;7.48;104.40
67358;HTU21D;54240;51.096;5.878;2023-02-11T08:06:15;7.41;112.03
67358;HTU21D;54240;51.096;5.878;2023-02-11T08:08:41;7.50;95.27
67358;HTU21D;54240;51.096;5.878;2023-02-11T08:11:10;7.43;109.87
67358;HTU21D;54240;51.096;5.878;2023-02-11T08:13:37;7.48;101.34
67358;HTU21D;54240;51.096;5.878;2023-02-11T08:16:03;7.45;105.44
67358;HTU21D;54240;51.096;5.878;2023-02-11T08:18:31;7.57;91.12
67358;HTU21D;54240;51.096;5.878;2023-02-11T08:21:04;7.59;87.80
67358;HTU21D;54240;51.096;5.878;2023-02-11T08:23:31;7.50;107.16
67358;HTU21D;54240;51.096;5.878;2023-02-11T08:26:01;7.48;110.10
67358;HTU21D;54240;51.096;5.878;2023-02-11T08:28:28;7.58;104.38
67358;HTU21D;54240;51.096;5.878;2023-02-11T08:30:54;7.45;118.99
67358;HTU21D;54240;51.096;5.878;2023-02-11T08:33:20;7.29;118.99
67358;HTU21D;54240;51.096;5.878;2023-02-11T08:35:46;7.35;118.99
67358;HTU21D;54240;51.096;5.878;2023-02-11T08:38:11;7.41;118.99
67358;HTU21D;54240;51.096;5.878;2023-02-11T08:40:37;7.46;118.99
67358;HTU21D;54240;51.096;5.878;2023-02-11T08:43:03;7.50;118.99
67358;HTU21D;54240;51.096;5.878;2023-02-11T08:45:29;7.53;118.99
67358;HTU21D;54240;51.096;5.878;2023-02-11T08:47:54;7.58;118.99
67358;HTU21D;54240;51.096;5.878;2023-02-11T08:50:20;7.64;118.99
67358;HTU21D;54240;51.096;5.878;2023-02-11T08:52:46;7.62;118.07
67358;HTU21D;54240;51.096;5.878;2023-02-11T08:55:12;7.65;118.99
67358;HTU21D;54240;51.096;5.878;2023-02-11T08:57:38;7.37;118.99
67358;HTU21D;54240;51.096;5.878;2023-02-11T09:00:04;7.40;118.99
67358;HTU21D;54240;51.096;5.878;2023-02-11T09:02:30;7.41;118.99
67358;HTU21D;54240;51.096;5.878;2023-02-11T09:04:56;7.50;118.99
67358;HTU21D;54240;51.096;5.878;2023-02-11T09:07:21;7.45;118.99
67358;HTU21D;54240;51.096;5.878;2023-02-11T09:09:47;7.62;118.99
67358;HTU21D;54240;51.096;5.878;2023-02-11T09:12:13;7.57;118.99
67358;HTU21D;54240;51.096;5.878;2023-02-11T09:14:39;7.69;118.99
67358;HTU21D;54240;51.096;5.878;2023-02-11T09:17:05;7.67;118.99
67358;HTU21D;54240;51.096;5.878;2023-02-11T09:19:31;7.72;118.99
67358;HTU21D;54240;51.096;5.878;2023-02-11T09:21:58;7.82;118.99
67358;HTU21D;54240;51.096;5.878;2023-02-11T09:24:24;7.57;118.99
67358;HTU21D;54240;51.096;5.878;2023-02-11T09:26:49;7.78;118.99
67358;HTU21D;54240;51.096;5.878;2023-02-11T09:29:15;7.83;118.99
67358;HTU21D;54240;51.096;5.878;2023-02-11T09:31:41;7.92;118.99
67358;HTU21D;54240;51.096;5.878;2023-02-11T09:34:07;7.72;118.99
67358;HTU21D;54240;51.096;5.878;2023-02-11T09:36:36;7.68;118.99
67358;HTU21D;54240;51.096;5.878;2023-02-11T09:39:05;7.91;115.86
67358;HTU21D;54240;51.096;5.878;2023-02-11T09:44:19;7.82;118.99
67358;HTU21D;54240;51.096;5.878;2023-02-11T09:46:57;7.73;118.99
67358;HTU21D;54240;51.096;5.878;2023-02-11T09:49:50;7.69;118.99
67358;HTU21D;54240;51.096;5.878;2023-02-11T09:52:21;7.79;118.99
67358;HTU21D;54240;51.096;5.878;2023-02-11T09:54:55;7.90;118.99
67358;HTU21D;54240;51.096;5.878;2023-02-11T09:57:33;7.97;118.99
67358;HTU21D;54240;51.096;5.878;2023-02-11T10:00:01;8.08;118.99
67358;HTU21D;54240;51.096;5.878;2023-02-11T10:22:28;8.23;69.13
67358;HTU21D;54240;51.096;5.878;2023-02-11T10:24:57;8.36;45.53
67358;HTU21D;54240;51.096;5.878;2023-02-11T10:27:30;8.33;27.62
67358;HTU21D;54240;51.096;5.878;2023-02-11T10:30:06;8.32;41.71
67358;HTU21D;54240;51.096;5.878;2023-02-11T10:32:48;8.33;51.33
67358;HTU21D;54240;51.096;5.878;2023-02-11T10:35:19;8.32;43.55
67358;HTU21D;54240;51.096;5.878;2023-02-11T10:37:46;8.38;47.55
67358;HTU21D;54240;51.096;5.878;2023-02-11T10:40:18;8.37;49.30
67358;HTU21D;54240;51.096;5.878;2023-02-11T10:42:48;8.36;48.91
67358;HTU21D;54240;51.096;5.878;2023-02-11T10:45:33;8.46;37.14
67358;HTU21D;54240;51.096;5.878;2023-02-11T10:48:04;8.55;25.06
67358;HTU21D;54240;51.096;5.878;2023-02-11T10:50:33;8.47;23.09
67358;HTU21D;54240;51.096;5.878;2023-02-11T10:53:17;8.39;23.68
67358;HTU21D;54240;51.096;5.878;2023-02-11T10:55:55;8.30;49.38
67358;HTU21D;54240;51.096;5.878;2023-02-11T10:58:25;8.26;76.79
67358;HTU21D;54240;51.096;5.878;2023-02-11T11:00:55;8.22;86.21
67358;HTU21D;54240;51.096;5.878;2023-02-11T11:03:24;8.44;54.36
67358;HTU21D;54240;51.096;5.878;2023-02-11T11:06:29;8.51;42.92
67358;HTU21D;54240;51.096;5.878;2023-02-11T11:08:56;8.64;33.52
67358;HTU21D;54240;51.096;5.878;2023-02-11T11:11:24;8.76;19.09
67358;HTU21D;54240;51.096;5.878;2023-02-11T11:13:57;8.72;6.67
67358;HTU21D;54240;51.096;5.878;2023-02-11T11:16:30;8.57;-2.73
67358;HTU21D;54240;51.096;5.878;2023-02-11T11:21:44;8.60;22.19
67358;HTU21D;54240;51.096;5.878;2023-02-11T11:24:40;8.65;6.54
67358;HTU21D;54240;51.096;5.878;2023-02-11T11:27:20;8.70;-0.51
67358;HTU21D;54240;51.096;5.878;2023-02-11T11:29:51;8.71;7.67
67358;HTU21D;54240;51.096;5.878;2023-02-11T11:32:24;8.80;-6.00
67358;HTU21D;54240;51.096;5.878;2023-02-11T11:34:55;8.70;1.51
67358;HTU21D;54240;51.096;5.878;2023-02-11T11:37:28;8.64;6.95
67358;HTU21D;54240;51.096;5.878;2023-02-11T11:42:38;8.68;15.68
67358;HTU21D;54240;51.096;5.878;2023-02-11T11:47:58;8.78;1.35
67358;HTU21D;54240;51.096;5.878;2023-02-11T11:50:26;8.86;-6.00
67358;HTU21D;54240;51.096;5.878;2023-02-11T11:53:06;8.79;-6.00
67358;HTU21D;54240;51.096;5.878;2023-02-11T11:55:45;8.89;-6.00
67358;HTU21D;54240;51.096;5.878;2023-02-11T11:58:18;8.90;-6.00
67358;HTU21D;54240;51.096;5.878;2023-02-11T12:06:29;8.90;-2.64
67358;HTU21D;54240;51.096;5.878;2023-02-11T12:21:31;9.06;-1.59
67358;HTU21D;54240;51.096;5.878;2023-02-11T12:29:22;9.29;-6.00
67358;HTU21D;54240;51.096;5.878;2023-02-11T12:32:08;9.31;-6.00
67358;HTU21D;54240;51.096;5.878;2023-02-11T12:39:49;9.36;-6.00
67358;HTU21D;54240;51.096;5.878;2023-02-11T12:50:40;9.35;-6.00
67358;HTU21D;54240;51.096;5.878;2023-02-11T12:59:06;9.65;-6.00
67358;HTU21D;54240;51.096;5.878;2023-02-11T13:01:40;9.48;-6.00
67358;HTU21D;54240;51.096;5.878;2023-02-11T13:06:45;9.60;-6.00
67358;HTU21D;54240;51.096;5.878;2023-02-11T13:09:26;9.52;-6.00
67358;HTU21D;54240;51.096;5.878;2023-02-11T13:11:57;9.66;-6.00
67358;HTU21D;54240;51.096;5.878;2023-02-11T13:14:51;9.65;-6.00
67358;HTU21D;54240;51.096;5.878;2023-02-11T13:17:32;9.61;-6.00
67358;HTU21D;54240;51.096;5.878;2023-02-11T13:20:59;9.62;-6.00
67358;HTU21D;54240;51.096;5.878;2023-02-11T13:23:22;9.56;-6.00
67358;HTU21D;54240;51.096;5.878;2023-02-11T13:26:07;9.68;-6.00
67358;HTU21D;54240;51.096;5.878;2023-02-11T13:28:47;9.69;-6.00
67358;HTU21D;54240;51.096;5.878;2023-02-11T13:31:17;9.67;-6.00
67358;HTU21D;54240;51.096;5.878;2023-02-11T13:33:45;9.64;-6.00
67358;HTU21D;54240;51.096;5.878;2023-02-11T13:36:17;9.66;-6.00
67358;HTU21D;54240;51.096;5.878;2023-02-11T13:39:01;9.65;-6.00
67358;HTU21D;54240;51.096;5.878;2023-02-11T13:41:32;9.70;-6.00
67358;HTU21D;54240;51.096;5.878;2023-02-11T13:44:12;9.55;-6.00
67358;HTU21D;54240;51.096;5.878;2023-02-11T13:47:06;9.66;-6.00
67358;HTU21D;54240;51.096;5.878;2023-02-11T13:49:40;9.66;-6.00
67358;HTU21D;54240;51.096;5.878;2023-02-11T13:52:33;9.72;-6.00
67358;HTU21D;54240;51.096;5.878;2023-02-11T13:57:38;9.52;-6.00
67358;HTU21D;54240;51.096;5.878;2023-02-11T14:06:10;9.67;-6.00
67358;HTU21D;54240;51.096;5.878;2023-02-11T14:11:48;9.42;-6.00
67358;HTU21D;54240;51.096;5.878;2023-02-11T14:14:26;9.67;-6.00
67358;HTU21D;54240;51.096;5.878;2023-02-11T14:19:38;9.82;-6.00
67358;HTU21D;54240;51.096;5.878;2023-02-11T14:22:26;9.69;-6.00
67358;HTU21D;54240;51.096;5.878;2023-02-11T14:24:59;9.70;-6.00
67358;HTU21D;54240;51.096;5.878;2023-02-11T14:27:41;9.67;-6.00
67358;HTU21D;54240;51.096;5.878;2023-02-11T14:36:01;9.82;-6.00
67358;HTU21D;54240;51.096;5.878;2023-02-11T14:41:18;9.94;-6.00
67358;HTU21D;54240;51.096;5.878;2023-02-11T14:43:49;9.93;-6.00
67358;HTU21D;54240;51.096;5.878;2023-02-11T14:46:18;9.97;-6.00
67358;HTU21D;54240;51.096;5.878;2023-02-11T14:48:48;9.95;-6.00
67358;HTU21D;54240;51.096;5.878;2023-02-11T14:51:16;9.91;-6.00
67358;HTU21D;54240;51.096;5.878;2023-02-11T14:53:48;9.98;-6.00
67358;HTU21D;54240;51.096;5.878;2023-02-11T14:56:18;9.96;-6.00
67358;HTU21D;54240;51.096;5.878;2023-02-11T14:58:49;9.98;-6.00
67358;HTU21D;54240;51.096;5.878;2023-02-11T15:01:39;9.86;-6.00
67358;HTU21D;54240;51.096;5.878;2023-02-11T15:04:30;9.96;-6.00
67358;HTU21D;54240;51.096;5.878;2023-02-11T15:07:03;9.93;-6.00
67358;HTU21D;54240;51.096;5.878;2023-02-11T15:09:40;9.90;-6.00
67358;HTU21D;54240;51.096;5.878;2023-02-11T15:12:24;9.88;-6.00
67358;HTU21D;54240;51.096;5.878;2023-02-11T15:14:54;9.82;-6.00
67358;HTU21D;54240;51.096;5.878;2023-02-11T15:17:27;9.67;-6.00
67358;HTU21D;54240;51.096;5.878;2023-02-11T15:19:59;9.77;-6.00
67358;HTU21D;54240;51.096;5.878;2023-02-11T15:22:29;9.85;-6.00
67358;HTU21D;54240;51.096;5.878;2023-02-11T15:32:59;9.85;-6.00
67358;HTU21D;54240;51.096;5.878;2023-02-11T15:35:37;9.85;-6.00
67358;HTU21D;54240;51.096;5.878;2023-02-11T15:38:03;9.83;-6.00
67358;HTU21D;54240;51.096;5.878;2023-02-11T15:40:35;9.72;-6.00
67358;HTU21D;54240;51.096;5.878;2023-02-11T15:43:07;9.65;-6.00
67358;HTU21D;54240;51.096;5.878;2023-02-11T15:45:58;9.61;-6.00
67358;HTU21D;54240;51.096;5.878;2023-02-11T15:48:25;9.68;-6.00
67358;HTU21D;54240;51.096;5.878;2023-02-11T15:50:57;9.56;-6.00
67358;HTU21D;54240;51.096;5.878;2023-02-11T15:53:32;9.56;-6.00
67358;HTU21D;54240;51.096;5.878;2023-02-11T15:56:16;9.57;-6.00
67358;HTU21D;54240;51.096;5.878;2023-02-11T15:58:46;9.59;-6.00
67358;HTU21D;54240;51.096;5.878;2023-02-11T16:01:14;9.69;-6.00
67358;HTU21D;54240;51.096;5.878;2023-02-11T16:03:41;9.53;-6.00
67358;HTU21D;54240;51.096;5.878;2023-02-11T16:06:22;9.55;-6.00
67358;HTU21D;54240;51.096;5.878;2023-02-11T16:11:29;9.51;-6.00
67358;HTU21D;54240;51.096;5.878;2023-02-11T16:13:56;9.59;-6.00
67358;HTU21D;54240;51.096;5.878;2023-02-11T16:16:33;9.62;-6.00
67358;HTU21D;54240;51.096;5.878;2023-02-11T16:19:01;9.50;-6.00
67358;HTU21D;54240;51.096;5.878;2023-02-11T16:21:35;9.48;-6.00
67358;HTU21D;54240;51.096;5.878;2023-02-11T16:24:06;9.49;-6.00
67358;HTU21D;54240;51.096;5.878;2023-02-11T16:26:39;9.46;-6.00
67358;HTU21D;54240;51.096;5.878;2023-02-11T16:29:14;9.44;-6.00
67358;HTU21D;54240;51.096;5.878;2023-02-11T16:31:46;9.49;-6.00
67358;HTU21D;54240;51.096;5.878;2023-02-11T16:34:23;9.42;-6.00
67358;HTU21D;54240;51.096;5.878;2023-02-11T16:36:50;9.39;-6.00
67358;HTU21D;54240;51.096;5.878;2023-02-11T16:39:19;9.42;-6.00
67358;HTU21D;54240;51.096;5.878;2023-02-11T16:41:49;9.42;-6.00
67358;HTU21D;54240;51.096;5.878;2023-02-11T16:44:16;9.41;-6.00
67358;HTU21D;54240;51.096;5.878;2023-02-11T16:46:43;9.38;-6.00
67358;HTU21D;54240;51.096;5.878;2023-02-11T16:49:30;9.42;-6.00
67358;HTU21D;54240;51.096;5.878;2023-02-11T16:52:05;9.41;-6.00
67358;HTU21D;54240;51.096;5.878;2023-02-11T16:54:32;9.44;-6.00
67358;HTU21D;54240;51.096;5.878;2023-02-11T16:56:58;9.41;-6.00
67358;HTU21D;54240;51.096;5.878;2023-02-11T16:59:24;9.38;-6.00
67358;HTU21D;54240;51.096;5.878;2023-02-11T17:01:52;9.40;-6.00
67358;HTU21D;54240;51.096;5.878;2023-02-11T17:04:23;9.41;-6.00
67358;HTU21D;54240;51.096;5.878;2023-02-11T17:06:49;9.37;-6.00
67358;HTU21D;54240;51.096;5.878;2023-02-11T17:09:26;9.36;-6.00
67358;HTU21D;54240;51.096;5.878;2023-02-11T17:11:52;9.34;-6.00
67358;HTU21D;54240;51.096;5.878;2023-02-11T17:14:19;9.37;-6.00
67358;HTU21D;54240;51.096;5.878;2023-02-11T17:16:46;9.38;-6.00
67358;HTU21D;54240;51.096;5.878;2023-02-11T17:19:15;9.38;-6.00
67358;HTU21D;54240;51.096;5.878;2023-02-11T17:21:42;9.39;-6.00
67358;HTU21D;54240;51.096;5.878;2023-02-11T17:24:08;9.34;-6.00
67358;HTU21D;54240;51.096;5.878;2023-02-11T17:26:34;9.30;-6.00
67358;HTU21D;54240;51.096;5.878;2023-02-11T17:29:04;9.22;-6.00
67358;HTU21D;54240;51.096;5.878;2023-02-11T17:31:30;9.20;-6.00
67358;HTU21D;54240;51.096;5.878;2023-02-11T17:33:56;9.22;-1.34
67358;HTU21D;54240;51.096;5.878;2023-02-11T17:36:22;9.22;0.45
67358;HTU21D;54240;51.096;5.878;2023-02-11T17:38:48;9.24;0.33
67358;HTU21D;54240;51.096;5.878;2023-02-11T17:41:16;9.25;-6.00
67358;HTU21D;54240;51.096;5.878;2023-02-11T17:43:42;9.25;-5.97
67358;HTU21D;54240;51.096;5.878;2023-02-11T17:46:08;9.25;-1.80
67358;HTU21D;54240;51.096;5.878;2023-02-11T17:48:37;9.26;-1.74
67358;HTU21D;54240;51.096;5.878;2023-02-11T17:51:05;9.25;2.17
67358;HTU21D;54240;51.096;5.878;2023-02-11T17:53:33;9.21;4.12
67358;HTU21D;54240;51.096;5.878;2023-02-11T17:56:00;9.17;14.84
67358;HTU21D;54240;51.096;5.878;2023-02-11T17:58:31;9.17;19.47
67358;HTU21D;54240;51.096;5.878;2023-02-11T18:00:57;9.17;18.53
67358;HTU21D;54240;51.096;5.878;2023-02-11T18:03:23;9.12;18.35
67358;HTU21D;54240;51.096;5.878;2023-02-11T18:05:49;9.06;27.36
67358;HTU21D;54240;51.096;5.878;2023-02-11T18:08:15;9.09;35.62
67358;HTU21D;54240;51.096;5.878;2023-02-11T18:10:42;9.03;46.20
67358;HTU21D;54240;51.096;5.878;2023-02-11T18:13:08;8.98;48.12